sensor_id;sensor_type;location;lat;lon;timestamp;pressure;altitude;pressure_sealevel;temperature;humidity
75247;BME280;63844;50.042;19.224;2022-12-28T00:01:07;100000.90;;;2.52;74.37
75247;BME280;63844;50.042;19.224;2022-12-28T00:03:34;99996.05;;;2.49;74.43
75247;BME280;63844;50.042;19.224;2022-12-28T00:06:02;99996.78;;;2.48;74.53
75247;BME280;63844;50.042;19.224;2022-12-28T00:08:29;99996.60;;;2.48;74.48
75247;BME280;63844;50.042;19.224;2022-12-28T00:11:03;99997.90;;;2.43;74.57
75247;BME280;63844;50.042;19.224;2022-12-28T00:13:31;99999.82;;;2.44;74.54
75247;BME280;63844;50.042;19.224;2022-12-28T00:16:06;100001.61;;;2.40;74.63
75247;BME280;63844;50.042;19.224;2022-12-28T00:18:34;100001.25;;;2.41;74.65
75247;BME280;63844;50.042;19.224;2022-12-28T00:21:01;100001.77;;;2.41;74.72
75247;BME280;63844;50.042;19.224;2022-12-28T00:23:28;99995.17;;;2.40;74.78
75247;BME280;63844;50.042;19.224;2022-12-28T00:25:55;99994.65;;;2.39;74.80
75247;BME280;63844;50.042;19.224;2022-12-28T00:28:21;99996.23;;;2.38;74.82
75247;BME280;63844;50.042;19.224;2022-12-28T00:30:47;99992.09;;;2.36;74.96
75247;BME280;63844;50.042;19.224;2022-12-28T00:33:14;99990.86;;;2.36;74.94
75247;BME280;63844;50.042;19.224;2022-12-28T00:35:40;99991.24;;;2.34;74.98
75247;BME280;63844;50.042;19.224;2022-12-28T00:38:07;99997.55;;;2.33;75.01
75247;BME280;63844;50.042;19.224;2022-12-28T00:40:33;99997.59;;;2.31;75.11
75247;BME280;63844;50.042;19.224;2022-12-28T00:42:59;99999.05;;;2.36;74.88
75247;BME280;63844;50.042;19.224;2022-12-28T00:45:26;100001.90;;;2.34;74.99
75247;BME280;63844;50.042;19.224;2022-12-28T00:47:52;100004.17;;;2.33;75.07
75247;BME280;63844;50.042;19.224;2022-12-28T00:50:18;100001.20;;;2.34;75.08
75247;BME280;63844;50.042;19.224;2022-12-28T00:52:45;100001.57;;;2.33;75.24
75247;BME280;63844;50.042;19.224;2022-12-28T00:55:11;99999.63;;;2.34;75.21
75247;BME280;63844;50.042;19.224;2022-12-28T00:57:38;100000.91;;;2.30;75.16
75247;BME280;63844;50.042;19.224;2022-12-28T01:00:06;100004.34;;;2.34;75.09
75247;BME280;63844;50.042;19.224;2022-12-28T01:02:33;100003.51;;;2.32;75.15
75247;BME280;63844;50.042;19.224;2022-12-28T01:04:59;100009.95;;;2.33;75.16
75247;BME280;63844;50.042;19.224;2022-12-28T01:07:26;100012.15;;;2.26;75.33
75247;BME280;63844;50.042;19.224;2022-12-28T01:09:52;100010.02;;;2.28;75.25
75247;BME280;63844;50.042;19.224;2022-12-28T01:12:18;100008.64;;;2.27;75.18
75247;BME280;63844;50.042;19.224;2022-12-28T01:14:45;100004.88;;;2.22;75.27
75247;BME280;63844;50.042;19.224;2022-12-28T01:17:11;100001.95;;;2.20;75.40
75247;BME280;63844;50.042;19.224;2022-12-28T01:19:37;100002.99;;;2.20;75.39
75247;BME280;63844;50.042;19.224;2022-12-28T01:22:04;99999.81;;;2.11;75.45
75247;BME280;63844;50.042;19.224;2022-12-28T01:24:30;99996.37;;;2.07;75.55
75247;BME280;63844;50.042;19.224;2022-12-28T01:26:57;99994.82;;;2.06;75.45
75247;BME280;63844;50.042;19.224;2022-12-28T01:29:23;99996.08;;;2.04;75.61
75247;BME280;63844;50.042;19.224;2022-12-28T01:31:49;100000.30;;;2.02;75.55
75247;BME280;63844;50.042;19.224;2022-12-28T01:34:16;100002.96;;;1.99;75.50
75247;BME280;63844;50.042;19.224;2022-12-28T01:36:42;100000.91;;;1.96;75.45
75247;BME280;63844;50.042;19.224;2022-12-28T01:39:09;99997.66;;;1.92;75.61
75247;BME280;63844;50.042;19.224;2022-12-28T01:41:37;99994.90;;;1.89;75.65
75247;BME280;63844;50.042;19.224;2022-12-28T01:47:01;99992.54;;;1.84;75.72
75247;BME280;63844;50.042;19.224;2022-12-28T01:49:37;99994.86;;;1.81;75.63
75247;BME280;63844;50.042;19.224;2022-12-28T01:52:07;99996.13;;;1.77;75.64
75247;BME280;63844;50.042;19.224;2022-12-28T01:54:48;99993.72;;;1.74;75.54
75247;BME280;63844;50.042;19.224;2022-12-28T01:57:17;99989.42;;;1.70;75.86
75247;BME280;63844;50.042;19.224;2022-12-28T01:59:50;99988.56;;;1.69;75.75
75247;BME280;63844;50.042;19.224;2022-12-28T02:02:18;99991.38;;;1.67;76.02
75247;BME280;63844;50.042;19.224;2022-12-28T02:04:47;99991.42;;;1.63;75.96
75247;BME280;63844;50.042;19.224;2022-12-28T02:07:20;99984.33;;;1.59;76.07
75247;BME280;63844;50.042;19.224;2022-12-28T02:09:52;99975.84;;;1.54;76.16
75247;BME280;63844;50.042;19.224;2022-12-28T02:12:19;99974.99;;;1.54;76.02
75247;BME280;63844;50.042;19.224;2022-12-28T02:14:45;99968.41;;;1.49;76.25
75247;BME280;63844;50.042;19.224;2022-12-28T02:17:12;99958.52;;;1.44;76.09
75247;BME280;63844;50.042;19.224;2022-12-28T02:19:45;99960.11;;;1.44;76.33
75247;BME280;63844;50.042;19.224;2022-12-28T02:22:31;99957.88;;;1.42;76.09
75247;BME280;63844;50.042;19.224;2022-12-28T02:28:18;99961.27;;;1.35;76.76
75247;BME280;63844;50.042;19.224;2022-12-28T02:31:00;99956.73;;;1.36;76.53
75247;BME280;63844;50.042;19.224;2022-12-28T02:33:42;99950.48;;;1.33;76.27
75247;BME280;63844;50.042;19.224;2022-12-28T02:36:33;99942.34;;;1.29;76.61
75247;BME280;63844;50.042;19.224;2022-12-28T02:39:04;99933.63;;;1.29;76.53
75247;BME280;63844;50.042;19.224;2022-12-28T02:41:33;99927.54;;;1.28;76.41
75247;BME280;63844;50.042;19.224;2022-12-28T02:44:00;99925.09;;;1.28;76.29
75247;BME280;63844;50.042;19.224;2022-12-28T02:46:31;99920.80;;;1.24;76.57
75247;BME280;63844;50.042;19.224;2022-12-28T02:49:26;99920.62;;;1.23;76.24
75247;BME280;63844;50.042;19.224;2022-12-28T02:55:03;99920.19;;;1.17;76.72
75247;BME280;63844;50.042;19.224;2022-12-28T03:06:23;99907.57;;;0.95;77.11
75247;BME280;63844;50.042;19.224;2022-12-28T03:09:20;99900.01;;;0.85;77.24
75247;BME280;63844;50.042;19.224;2022-12-28T03:12:02;99898.03;;;0.76;77.68
75247;BME280;63844;50.042;19.224;2022-12-28T03:14:36;99896.88;;;0.71;77.64
75247;BME280;63844;50.042;19.224;2022-12-28T03:17:06;99894.31;;;0.65;77.80
75247;BME280;63844;50.042;19.224;2022-12-28T03:19:57;99893.86;;;0.59;77.87
75247;BME280;63844;50.042;19.224;2022-12-28T03:22:44;99894.84;;;0.50;77.89
75247;BME280;63844;50.042;19.224;2022-12-28T03:25:31;99891.55;;;0.46;77.97
75247;BME280;63844;50.042;19.224;2022-12-28T03:28:20;99895.59;;;0.43;78.06
75247;BME280;63844;50.042;19.224;2022-12-28T03:31:17;99902.92;;;0.42;78.09
75247;BME280;63844;50.042;19.224;2022-12-28T03:33:46;99902.59;;;0.39;77.96
75247;BME280;63844;50.042;19.224;2022-12-28T03:36:24;99906.46;;;0.37;77.70
75247;BME280;63844;50.042;19.224;2022-12-28T03:39:02;99909.46;;;0.31;77.92
75247;BME280;63844;50.042;19.224;2022-12-28T03:41:36;99910.56;;;0.27;77.94
75247;BME280;63844;50.042;19.224;2022-12-28T03:44:15;99907.98;;;0.22;78.00
75247;BME280;63844;50.042;19.224;2022-12-28T03:46:48;99904.02;;;0.19;78.49
75247;BME280;63844;50.042;19.224;2022-12-28T03:49:17;99898.14;;;0.14;78.52
75247;BME280;63844;50.042;19.224;2022-12-28T03:51:46;99893.82;;;0.11;78.50
75247;BME280;63844;50.042;19.224;2022-12-28T03:54:15;99890.54;;;0.09;78.46
75247;BME280;63844;50.042;19.224;2022-12-28T03:56:49;99883.96;;;0.04;78.89
75247;BME280;63844;50.042;19.224;2022-12-28T03:59:17;99884.34;;;0.01;78.97
75247;BME280;63844;50.042;19.224;2022-12-28T04:01:43;99882.95;;;0.00;79.18
75247;BME280;63844;50.042;19.224;2022-12-28T04:04:11;99879.65;;;-0.01;78.96
75247;BME280;63844;50.042;19.224;2022-12-28T04:06:37;99876.05;;;-0.05;79.08
75247;BME280;63844;50.042;19.224;2022-12-28T04:09:05;99871.02;;;-0.08;78.94
75247;BME280;63844;50.042;19.224;2022-12-28T04:11:31;99867.91;;;-0.11;78.94
75247;BME280;63844;50.042;19.224;2022-12-28T04:13:58;99865.89;;;-0.17;78.55
75247;BME280;63844;50.042;19.224;2022-12-28T04:16:24;99861.95;;;-0.28;78.88
75247;BME280;63844;50.042;19.224;2022-12-28T04:18:51;99859.06;;;-0.34;78.79
75247;BME280;63844;50.042;19.224;2022-12-28T04:21:17;99855.42;;;-0.37;79.41
75247;BME280;63844;50.042;19.224;2022-12-28T04:23:43;99856.97;;;-0.34;79.57
75247;BME280;63844;50.042;19.224;2022-12-28T04:26:12;99851.55;;;-0.31;79.36
75247;BME280;63844;50.042;19.224;2022-12-28T04:28:39;99844.94;;;-0.30;79.23
75247;BME280;63844;50.042;19.224;2022-12-28T04:31:07;99845.11;;;-0.31;79.02
75247;BME280;63844;50.042;19.224;2022-12-28T04:33:35;99843.40;;;-0.33;79.44
75247;BME280;63844;50.042;19.224;2022-12-28T04:36:08;99837.32;;;-0.34;79.68
75247;BME280;63844;50.042;19.224;2022-12-28T04:38:35;99838.56;;;-0.36;78.78
75247;BME280;63844;50.042;19.224;2022-12-28T04:41:02;99840.13;;;-0.39;78.71
75247;BME280;63844;50.042;19.224;2022-12-28T04:43:29;99837.55;;;-0.42;78.72
75247;BME280;63844;50.042;19.224;2022-12-28T04:45:59;99836.86;;;-0.43;78.66
75247;BME280;63844;50.042;19.224;2022-12-28T04:48:27;99834.30;;;-0.46;79.07
75247;BME280;63844;50.042;19.224;2022-12-28T04:50:54;99833.60;;;-0.47;78.96
75247;BME280;63844;50.042;19.224;2022-12-28T04:53:21;99832.73;;;-0.48;78.86
75247;BME280;63844;50.042;19.224;2022-12-28T04:55:48;99831.35;;;-0.48;79.16
75247;BME280;63844;50.042;19.224;2022-12-28T04:58:15;99836.75;;;-0.50;79.19
75247;BME280;63844;50.042;19.224;2022-12-28T05:00:41;99826.84;;;-0.50;79.35
75247;BME280;63844;50.042;19.224;2022-12-28T05:03:08;99827.37;;;-0.51;79.21
75247;BME280;63844;50.042;19.224;2022-12-28T05:05:35;99826.34;;;-0.52;79.38
75247;BME280;63844;50.042;19.224;2022-12-28T05:08:02;99825.30;;;-0.52;79.30
75247;BME280;63844;50.042;19.224;2022-12-28T05:10:29;99825.97;;;-0.50;79.34
75247;BME280;63844;50.042;19.224;2022-12-28T05:12:55;99824.75;;;-0.50;79.47
75247;BME280;63844;50.042;19.224;2022-12-28T05:15:22;99819.55;;;-0.51;79.33
75247;BME280;63844;50.042;19.224;2022-12-28T05:17:48;99813.13;;;-0.53;79.26
75247;BME280;63844;50.042;19.224;2022-12-28T05:20:14;99815.08;;;-0.57;80.20
75247;BME280;63844;50.042;19.224;2022-12-28T05:22:43;99811.96;;;-0.59;80.25
75247;BME280;63844;50.042;19.224;2022-12-28T05:25:09;99807.61;;;-0.59;79.64
75247;BME280;63844;50.042;19.224;2022-12-28T05:27:35;99806.23;;;-0.62;79.64
75247;BME280;63844;50.042;19.224;2022-12-28T05:30:02;99803.13;;;-0.64;79.51
75247;BME280;63844;50.042;19.224;2022-12-28T05:32:29;99800.89;;;-0.66;79.44
75247;BME280;63844;50.042;19.224;2022-12-28T05:34:55;99801.05;;;-0.66;79.65
75247;BME280;63844;50.042;19.224;2022-12-28T05:37:21;99803.30;;;-0.65;79.44
75247;BME280;63844;50.042;19.224;2022-12-28T05:39:48;99801.23;;;-0.68;80.18
75247;BME280;63844;50.042;19.224;2022-12-28T05:42:14;99800.88;;;-0.65;79.73
75247;BME280;63844;50.042;19.224;2022-12-28T05:44:41;99793.59;;;-0.67;80.05
75247;BME280;63844;50.042;19.224;2022-12-28T05:47:07;99785.79;;;-0.70;80.49
75247;BME280;63844;50.042;19.224;2022-12-28T05:49:34;99791.67;;;-0.67;79.89
75247;BME280;63844;50.042;19.224;2022-12-28T05:52:00;99787.13;;;-0.64;80.02
75247;BME280;63844;50.042;19.224;2022-12-28T05:54:26;99783.79;;;-0.59;80.06
75247;BME280;63844;50.042;19.224;2022-12-28T05:56:53;99785.50;;;-0.55;80.50
75247;BME280;63844;50.042;19.224;2022-12-28T05:59:19;99785.63;;;-0.50;80.51
75247;BME280;63844;50.042;19.224;2022-12-28T06:01:45;99786.13;;;-0.47;80.33
75247;BME280;63844;50.042;19.224;2022-12-28T06:04:16;99786.80;;;-0.44;80.05
75247;BME280;63844;50.042;19.224;2022-12-28T06:06:44;99786.77;;;-0.41;80.30
75247;BME280;63844;50.042;19.224;2022-12-28T06:09:11;99787.11;;;-0.39;79.87
75247;BME280;63844;50.042;19.224;2022-12-28T06:11:38;99778.38;;;-0.37;79.63
75247;BME280;63844;50.042;19.224;2022-12-28T06:14:05;99773.54;;;-0.39;79.85
75247;BME280;63844;50.042;19.224;2022-12-28T06:16:36;99770.23;;;-0.39;79.78
75247;BME280;63844;50.042;19.224;2022-12-28T06:19:09;99765.70;;;-0.37;80.04
75247;BME280;63844;50.042;19.224;2022-12-28T06:21:37;99767.06;;;-0.35;79.88
75247;BME280;63844;50.042;19.224;2022-12-28T06:24:05;99767.39;;;-0.33;79.74
75247;BME280;63844;50.042;19.224;2022-12-28T06:26:34;99768.78;;;-0.33;79.81
75247;BME280;63844;50.042;19.224;2022-12-28T06:29:01;99765.45;;;-0.30;79.88
75247;BME280;63844;50.042;19.224;2022-12-28T06:31:30;99767.02;;;-0.31;80.03
75247;BME280;63844;50.042;19.224;2022-12-28T06:33:59;99763.73;;;-0.31;79.71
75247;BME280;63844;50.042;19.224;2022-12-28T06:36:31;99759.40;;;-0.34;79.68
75247;BME280;63844;50.042;19.224;2022-12-28T06:38:59;99758.20;;;-0.36;79.60
75247;BME280;63844;50.042;19.224;2022-12-28T06:41:27;99753.54;;;-0.39;79.49
75247;BME280;63844;50.042;19.224;2022-12-28T06:43:55;99747.67;;;-0.44;79.50
75247;BME280;63844;50.042;19.224;2022-12-28T06:46:23;99751.86;;;-0.46;79.65
75247;BME280;63844;50.042;19.224;2022-12-28T06:48:51;99749.94;;;-0.47;79.80
75247;BME280;63844;50.042;19.224;2022-12-28T06:51:22;99746.28;;;-0.45;79.53
75247;BME280;63844;50.042;19.224;2022-12-28T06:53:51;99743.70;;;-0.48;79.85
75247;BME280;63844;50.042;19.224;2022-12-28T06:56:20;99747.02;;;-0.49;79.82
75247;BME280;63844;50.042;19.224;2022-12-28T06:58:48;99748.06;;;-0.48;80.03
75247;BME280;63844;50.042;19.224;2022-12-28T07:01:21;99748.59;;;-0.49;79.98
75247;BME280;63844;50.042;19.224;2022-12-28T07:03:49;99749.48;;;-0.51;80.34
75247;BME280;63844;50.042;19.224;2022-12-28T07:06:17;99747.74;;;-0.53;80.76
75247;BME280;63844;50.042;19.224;2022-12-28T07:08:45;99744.48;;;-0.56;80.86
75247;BME280;63844;50.042;19.224;2022-12-28T07:11:17;99739.77;;;-0.54;80.84
75247;BME280;63844;50.042;19.224;2022-12-28T07:13:44;99740.83;;;-0.55;81.01
75247;BME280;63844;50.042;19.224;2022-12-28T07:16:16;99739.24;;;-0.55;80.78
75247;BME280;63844;50.042;19.224;2022-12-28T07:18:43;99741.88;;;-0.57;80.96
75247;BME280;63844;50.042;19.224;2022-12-28T07:21:12;99744.51;;;-0.60;80.88
75247;BME280;63844;50.042;19.224;2022-12-28T07:23:39;99740.70;;;-0.61;81.33
75247;BME280;63844;50.042;19.224;2022-12-28T07:26:10;99736.70;;;-0.61;80.95
75247;BME280;63844;50.042;19.224;2022-12-28T07:28:38;99738.08;;;-0.61;80.84
75247;BME280;63844;50.042;19.224;2022-12-28T07:31:10;99735.32;;;-0.61;81.07
75247;BME280;63844;50.042;19.224;2022-12-28T07:33:38;99736.35;;;-0.61;80.67
75247;BME280;63844;50.042;19.224;2022-12-28T07:36:05;99733.23;;;-0.62;81.25
75247;BME280;63844;50.042;19.224;2022-12-28T07:38:34;99733.08;;;-0.64;81.54
75247;BME280;63844;50.042;19.224;2022-12-28T07:41:11;99734.98;;;-0.66;81.16
75247;BME280;63844;50.042;19.224;2022-12-28T07:43:38;99732.02;;;-0.64;81.36
75247;BME280;63844;50.042;19.224;2022-12-28T07:46:06;99731.33;;;-0.63;81.02
75247;BME280;63844;50.042;19.224;2022-12-28T07:48:34;99734.95;;;-0.60;81.19
75247;BME280;63844;50.042;19.224;2022-12-28T07:51:09;99731.48;;;-0.59;80.82
75247;BME280;63844;50.042;19.224;2022-12-28T07:53:37;99734.55;;;-0.54;80.98
75247;BME280;63844;50.042;19.224;2022-12-28T07:56:05;99729.80;;;-0.47;81.26
75247;BME280;63844;50.042;19.224;2022-12-28T07:58:32;99724.52;;;-0.42;81.68
75247;BME280;63844;50.042;19.224;2022-12-28T08:03:30;99725.97;;;-0.30;82.00
75247;BME280;63844;50.042;19.224;2022-12-28T08:08:33;99724.62;;;-0.17;82.02
75247;BME280;63844;50.042;19.224;2022-12-28T08:11:04;99716.91;;;-0.12;81.81
75247;BME280;63844;50.042;19.224;2022-12-28T08:13:35;99718.79;;;-0.10;81.47
75247;BME280;63844;50.042;19.224;2022-12-28T08:16:04;99716.36;;;-0.10;81.40
75247;BME280;63844;50.042;19.224;2022-12-28T08:18:31;99713.37;;;-0.07;81.26
75247;BME280;63844;50.042;19.224;2022-12-28T08:21:03;99715.79;;;-0.05;81.28
75247;BME280;63844;50.042;19.224;2022-12-28T08:23:30;99713.83;;;-0.01;81.64
75247;BME280;63844;50.042;19.224;2022-12-28T08:29:01;99707.92;;;0.12;82.14
75247;BME280;63844;50.042;19.224;2022-12-28T08:31:30;99704.01;;;0.19;81.14
75247;BME280;63844;50.042;19.224;2022-12-28T08:33:58;99702.51;;;0.28;81.64
75247;BME280;63844;50.042;19.224;2022-12-28T08:36:26;99705.02;;;0.36;80.84
75247;BME280;63844;50.042;19.224;2022-12-28T08:38:53;99708.76;;;0.42;80.91
75247;BME280;63844;50.042;19.224;2022-12-28T08:41:21;99710.73;;;0.50;81.04
75247;BME280;63844;50.042;19.224;2022-12-28T08:43:49;99710.08;;;0.60;80.92
75247;BME280;63844;50.042;19.224;2022-12-28T08:46:18;99708.56;;;0.70;80.91
75247;BME280;63844;50.042;19.224;2022-12-28T08:48:47;99708.58;;;0.80;81.13
75247;BME280;63844;50.042;19.224;2022-12-28T08:51:18;99709.73;;;0.96;81.09
75247;BME280;63844;50.042;19.224;2022-12-28T08:53:45;99706.20;;;1.10;80.76
75247;BME280;63844;50.042;19.224;2022-12-28T08:56:14;99704.80;;;1.21;80.64
75247;BME280;63844;50.042;19.224;2022-12-28T08:58:42;99699.55;;;1.33;80.46
75247;BME280;63844;50.042;19.224;2022-12-28T09:01:13;99697.21;;;1.46;80.30
75247;BME280;63844;50.042;19.224;2022-12-28T09:03:42;99693.45;;;1.62;80.26
75247;BME280;63844;50.042;19.224;2022-12-28T09:06:11;99694.23;;;1.75;80.22
75247;BME280;63844;50.042;19.224;2022-12-28T09:08:38;99687.70;;;1.89;79.70
75247;BME280;63844;50.042;19.224;2022-12-28T09:11:08;99680.66;;;2.01;79.68
75247;BME280;63844;50.042;19.224;2022-12-28T09:13:35;99675.91;;;2.11;79.29
75247;BME280;63844;50.042;19.224;2022-12-28T09:16:05;99680.04;;;2.22;79.22
75247;BME280;63844;50.042;19.224;2022-12-28T09:18:32;99677.97;;;2.29;79.02
75247;BME280;63844;50.042;19.224;2022-12-28T09:21:09;99681.20;;;2.33;78.41
75247;BME280;63844;50.042;19.224;2022-12-28T09:23:36;99684.23;;;2.30;78.05
75247;BME280;63844;50.042;19.224;2022-12-28T09:26:07;99684.00;;;2.33;78.27
75247;BME280;63844;50.042;19.224;2022-12-28T09:28:35;99686.92;;;2.35;78.46
75247;BME280;63844;50.042;19.224;2022-12-28T09:31:05;99691.84;;;2.34;78.64
75247;BME280;63844;50.042;19.224;2022-12-28T09:33:33;99694.79;;;2.35;79.04
75247;BME280;63844;50.042;19.224;2022-12-28T09:36:19;99691.59;;;2.38;79.55
75247;BME280;63844;50.042;19.224;2022-12-28T09:38:47;99689.20;;;2.42;79.47
75247;BME280;63844;50.042;19.224;2022-12-28T09:46:50;99684.72;;;2.56;79.51
75247;BME280;63844;50.042;19.224;2022-12-28T09:49:19;99684.11;;;2.60;78.78
75247;BME280;63844;50.042;19.224;2022-12-28T09:54:45;99678.77;;;2.64;79.26
75247;BME280;63844;50.042;19.224;2022-12-28T09:57:16;99673.80;;;2.68;79.07
75247;BME280;63844;50.042;19.224;2022-12-28T09:59:46;99672.52;;;2.70;79.00
75247;BME280;63844;50.042;19.224;2022-12-28T10:02:28;99676.71;;;2.70;78.53
75247;BME280;63844;50.042;19.224;2022-12-28T10:04:56;99672.45;;;2.73;78.56
75247;BME280;63844;50.042;19.224;2022-12-28T10:07:23;99668.88;;;2.76;78.53
75247;BME280;63844;50.042;19.224;2022-12-28T10:09:50;99670.05;;;2.78;78.34
75247;BME280;63844;50.042;19.224;2022-12-28T10:12:20;99667.93;;;2.80;77.92
75247;BME280;63844;50.042;19.224;2022-12-28T10:14:48;99665.63;;;2.88;76.95
75247;BME280;63844;50.042;19.224;2022-12-28T10:17:16;99659.05;;;3.01;77.02
75247;BME280;63844;50.042;19.224;2022-12-28T10:19:46;99660.77;;;3.15;74.32
75247;BME280;63844;50.042;19.224;2022-12-28T10:22:17;99656.20;;;3.30;75.81
75247;BME280;63844;50.042;19.224;2022-12-28T10:24:44;99653.02;;;3.38;74.87
75247;BME280;63844;50.042;19.224;2022-12-28T10:27:21;99647.95;;;3.45;72.12
75247;BME280;63844;50.042;19.224;2022-12-28T10:29:52;99646.41;;;3.49;75.00
75247;BME280;63844;50.042;19.224;2022-12-28T10:32:19;99643.27;;;3.49;72.93
75247;BME280;63844;50.042;19.224;2022-12-28T10:34:57;99641.34;;;3.56;72.65
75247;BME280;63844;50.042;19.224;2022-12-28T10:37:26;99638.88;;;3.63;70.30
75247;BME280;63844;50.042;19.224;2022-12-28T10:40:16;99630.11;;;3.69;69.59
75247;BME280;63844;50.042;19.224;2022-12-28T10:42:50;99617.60;;;3.79;70.76
75247;BME280;63844;50.042;19.224;2022-12-28T10:45:20;99611.23;;;3.87;70.73
75247;BME280;63844;50.042;19.224;2022-12-28T10:47:50;99603.98;;;3.96;69.84
75247;BME280;63844;50.042;19.224;2022-12-28T10:50:41;99589.39;;;4.04;66.80
75247;BME280;63844;50.042;19.224;2022-12-28T10:56:02;99573.92;;;4.28;66.83
75247;BME280;63844;50.042;19.224;2022-12-28T10:58:29;99568.92;;;4.37;64.36
75247;BME280;63844;50.042;19.224;2022-12-28T11:00:59;99564.80;;;4.45;65.94
75247;BME280;63844;50.042;19.224;2022-12-28T11:03:35;99558.10;;;4.57;65.77
75247;BME280;63844;50.042;19.224;2022-12-28T11:08:38;99543.23;;;4.72;64.36
75247;BME280;63844;50.042;19.224;2022-12-28T11:11:06;99542.04;;;4.82;64.39
75247;BME280;63844;50.042;19.224;2022-12-28T11:13:33;99539.59;;;4.87;64.07
75247;BME280;63844;50.042;19.224;2022-12-28T11:15:59;99536.34;;;4.95;63.59
75247;BME280;63844;50.042;19.224;2022-12-28T11:18:26;99531.65;;;5.03;62.75
75247;BME280;63844;50.042;19.224;2022-12-28T11:20:53;99524.75;;;5.10;63.66
75247;BME280;63844;50.042;19.224;2022-12-28T11:23:25;99516.59;;;5.18;63.78
75247;BME280;63844;50.042;19.224;2022-12-28T11:25:57;99509.11;;;5.26;63.95
75247;BME280;63844;50.042;19.224;2022-12-28T11:28:24;99503.61;;;5.36;63.48
75247;BME280;63844;50.042;19.224;2022-12-28T11:30:50;99502.66;;;5.48;63.37
75247;BME280;63844;50.042;19.224;2022-12-28T11:33:39;99499.52;;;5.57;62.59
75247;BME280;63844;50.042;19.224;2022-12-28T11:36:21;99488.89;;;5.64;63.01
75247;BME280;63844;50.042;19.224;2022-12-28T11:38:51;99488.56;;;5.73;61.29
75247;BME280;63844;50.042;19.224;2022-12-28T11:43:53;99478.61;;;5.99;61.13
75247;BME280;63844;50.042;19.224;2022-12-28T11:49:01;99473.17;;;6.26;61.17
75247;BME280;63844;50.042;19.224;2022-12-28T11:51:32;99471.48;;;6.37;58.90
75247;BME280;63844;50.042;19.224;2022-12-28T11:54:04;99464.20;;;6.42;58.73
75247;BME280;63844;50.042;19.224;2022-12-28T11:59:30;99466.91;;;6.63;57.40
75247;BME280;63844;50.042;19.224;2022-12-28T12:04:34;99451.11;;;6.73;56.48
75247;BME280;63844;50.042;19.224;2022-12-28T12:12:00;99450.33;;;6.76;56.06
75247;BME280;63844;50.042;19.224;2022-12-28T12:17:06;99447.98;;;6.82;56.92
75247;BME280;63844;50.042;19.224;2022-12-28T12:19:41;99433.16;;;6.82;56.65
75247;BME280;63844;50.042;19.224;2022-12-28T12:24:46;99420.36;;;6.77;55.71
75247;BME280;63844;50.042;19.224;2022-12-28T12:27:25;99422.64;;;6.73;56.19
75247;BME280;63844;50.042;19.224;2022-12-28T12:29:59;99419.38;;;6.71;56.22
75247;BME280;63844;50.042;19.224;2022-12-28T12:32:54;99415.80;;;6.73;56.57
75247;BME280;63844;50.042;19.224;2022-12-28T12:35:26;99416.33;;;6.61;57.03
75247;BME280;63844;50.042;19.224;2022-12-28T12:38:24;99410.16;;;6.52;57.09
75247;BME280;63844;50.042;19.224;2022-12-28T12:49:43;99405.98;;;6.27;57.76
75247;BME280;63844;50.042;19.224;2022-12-28T13:00:40;99404.31;;;6.25;58.45
75247;BME280;63844;50.042;19.224;2022-12-28T13:03:28;99399.67;;;6.22;58.66
75247;BME280;63844;50.042;19.224;2022-12-28T13:05:59;99401.63;;;6.22;58.83
75247;BME280;63844;50.042;19.224;2022-12-28T13:08:48;99403.70;;;6.22;58.82
75247;BME280;63844;50.042;19.224;2022-12-28T13:11:17;99398.30;;;6.21;59.14
75247;BME280;63844;50.042;19.224;2022-12-28T13:13:46;99392.35;;;6.20;59.55
75247;BME280;63844;50.042;19.224;2022-12-28T13:16:17;99393.94;;;6.16;59.10
75247;BME280;63844;50.042;19.224;2022-12-28T13:19:02;99386.23;;;6.20;59.82
75247;BME280;63844;50.042;19.224;2022-12-28T13:21:39;99378.89;;;6.15;58.89
75247;BME280;63844;50.042;19.224;2022-12-28T13:26:46;99381.27;;;6.25;58.96
75247;BME280;63844;50.042;19.224;2022-12-28T13:29:17;99377.86;;;6.27;59.23
75247;BME280;63844;50.042;19.224;2022-12-28T13:31:44;99371.57;;;6.30;58.79
75247;BME280;63844;50.042;19.224;2022-12-28T13:34:18;99363.23;;;6.31;58.47
75247;BME280;63844;50.042;19.224;2022-12-28T13:36:52;99358.36;;;6.38;59.22
75247;BME280;63844;50.042;19.224;2022-12-28T13:39:25;99351.00;;;6.42;58.07
75247;BME280;63844;50.042;19.224;2022-12-28T13:42:02;99348.48;;;6.44;57.61
75247;BME280;63844;50.042;19.224;2022-12-28T13:47:06;99334.60;;;6.47;57.45
75247;BME280;63844;50.042;19.224;2022-12-28T13:49:38;99328.31;;;6.50;57.85
75247;BME280;63844;50.042;19.224;2022-12-28T13:52:11;99326.88;;;6.39;57.88
75247;BME280;63844;50.042;19.224;2022-12-28T13:54:44;99324.71;;;6.32;58.26
75247;BME280;63844;50.042;19.224;2022-12-28T13:57:13;99328.89;;;6.21;58.46
75247;BME280;63844;50.042;19.224;2022-12-28T13:59:42;99331.41;;;6.11;58.67
75247;BME280;63844;50.042;19.224;2022-12-28T14:02:18;99327.23;;;6.02;58.92
75247;BME280;63844;50.042;19.224;2022-12-28T14:04:47;99333.85;;;5.99;59.04
75247;BME280;63844;50.042;19.224;2022-12-28T14:07:16;99332.15;;;5.89;59.04
75247;BME280;63844;50.042;19.224;2022-12-28T14:09:44;99327.69;;;5.82;59.25
75247;BME280;63844;50.042;19.224;2022-12-28T14:12:12;99332.39;;;5.70;59.59
75247;BME280;63844;50.042;19.224;2022-12-28T14:14:40;99331.73;;;5.64;59.75
75247;BME280;63844;50.042;19.224;2022-12-28T14:17:07;99332.51;;;5.58;59.96
75247;BME280;63844;50.042;19.224;2022-12-28T14:19:34;99336.38;;;5.49;60.11
75247;BME280;63844;50.042;19.224;2022-12-28T14:22:01;99341.44;;;5.41;60.60
75247;BME280;63844;50.042;19.224;2022-12-28T14:24:27;99341.89;;;5.38;60.73
75247;BME280;63844;50.042;19.224;2022-12-28T14:26:56;99341.25;;;5.32;60.56
75247;BME280;63844;50.042;19.224;2022-12-28T14:29:29;99347.27;;;5.27;60.69
75247;BME280;63844;50.042;19.224;2022-12-28T14:31:57;99349.08;;;5.25;60.73
75247;BME280;63844;50.042;19.224;2022-12-28T14:34:30;99350.05;;;5.18;60.82